Fort Bliss, Texas
Current Conditions -  °F | °C
As of 5:58 PM on Monday 24 Nov 2014 (Local Time) from KBIF Reporting Station
Few Clouds Few Clouds  
Wind Chill: 43°   Ceiling: Unl
Heat Index: 47°   Visibility: 10mi
Dew Point: -8°   Wind: 8mph
Humidity: 10%   Direction: 360°N
Pressure: 30.09"   Gusts: NA
Location:  31.8335°N, 106.423°W
Report Text: KBIF 250058Z 36007KT 10SM FEW100 08/M22 A3009 RMK AO2A SLP182 T00831222 $
Loading
Personal Weather Stations






























Interactive Weather Map New forecast layout! Learn more

10-Day Weather Forecast

Advertisements
Track Severe Weather on mobile